there are no active watches, warnings or advisories



my webcam  My webcam


visit our other weather sites:

Template documentation
and downloads

And another site




nearby metar reports

   
KAHN - Athens Airport, GA
distance from station: e 35 mi
updated: Feb 28 2020 3:51 pm
overcast  
overcast  
   wind: wsw 15 mph<br />Gust to 15 mph
wind: wsw 15 mph
Gust to 15 mph
temperature: 50°F
wind chill: 44.6°F
dew point: 30.2°F
humidity: 47%
barometer: 30.06 inHg
clouds: Overcast
visibility: 10 mi
cloud details: mostly cloudy 7000 ft,
overcast 8500 ft
KAHN 282051Z 25013G21KT 10SM BKN070 OVC085 10/M01 A3006 RMK AO2 PK WND 27027/2003 SLP183 T01001011 55014
KBGE - Brainbridge Airport, GA
distance from station: ssw 180 mi
updated: Feb 28 2020 4:15 pm
clear  
clear  
   wind: west 12.7 mph<br />Gust to 12.7 mph
wind: west 12.7 mph
Gust to 12.7 mph
temperature: 60.8°F
dew point: 28.4°F
humidity: 29%
barometer: 30.17 inHg
clouds: Clear
visibility: 10 mi
cloud details: clear ft
KBGE 282115Z AUTO 26011G15KT 10SM CLR 16/M02 A3017 RMK AO2 T01631024
KSSI - Brunswick Airport, GA
distance from station: se 209 mi
updated: Feb 28 2020 3:53 pm
clear  
clear  
   wind: wsw 12.7 mph
wind: wsw 12.7 mph
temperature: 60.8°F
dew point: 24.8°F
humidity: 25%
barometer: 30.12 inHg
clouds: Clear
visibility: 10 mi
cloud details: clear ft
KSSI 282053Z AUTO 25011KT 10SM CLR 16/M04 A3012 RMK AO2 SLP202 T01611044 56026
KCSG - Columbus Airport, GA
distance from station: sw 92 mi
updated: Feb 28 2020 3:51 pm
clear  
clear  
   wind: wnw 15 mph<br />Gust to 15 mph
wind: wnw 15 mph
Gust to 15 mph
temperature: 60.8°F
dew point: 26.6°F
humidity: 27%
barometer: 30.1 inHg
clouds: Clear
visibility: 10 mi
cloud details: clear ft
KCSG 282051Z 29013G23KT 10SM CLR 16/M03 A3010 RMK AO2 SLP191 T01561033 56032
KGVL - Gainsville Airport, GA
distance from station: n 30 mi
updated: Feb 28 2020 3:53 pm
overcast  
overcast  
   wind: wnw 9.2 mph<br />Gust to 9.2 mph
wind: wnw 9.2 mph
Gust to 9.2 mph
temperature: 46.4°F
wind chill: 42.8°F
dew point: 32°F
humidity: 57%
barometer: 30.06 inHg
clouds: Overcast
visibility: 10 mi
cloud details: mostly cloudy 4100 ft,
mostly cloudy 4900 ft,
overcast 7000 ft
KGVL 282053Z AUTO 30008G16KT 10SM BKN041 BKN049 OVC070 08/00 A3006 RMK AO2 SLP182 60000 T00780000 56014
KRMG - Rome Airport, GA
distance from station: nw 60 mi
updated: Feb 28 2020 3:53 pm
overcast  
overcast  
   wind: west 9.2 mph
wind: west 9.2 mph
temperature: 48.2°F
wind chill: 44.6°F
dew point: 32°F
humidity: 54%
barometer: 30.09 inHg
clouds: Overcast
visibility: 10 mi
cloud details: few clouds 4700 ft,
mostly cloudy 5500 ft,
overcast 7500 ft
KRMG 282053Z AUTO 27008KT 10SM FEW047 BKN055 OVC075 09/00 A3009 RMK AO2 SLP190 T00940000 55007
KSAV - Savannah Airport, GA
distance from station: se 183 mi
updated: Feb 28 2020 3:53 pm
clear  
clear  
   wind: wsw 16.1 mph<br />Gust to 16.1 mph
wind: wsw 16.1 mph
Gust to 16.1 mph
temperature: 60.8°F
dew point: 23°F
humidity: 23%
barometer: 30.09 inHg
clouds: Clear
visibility: 10 mi
cloud details: clear ft
KSAV 282053Z 25014G20KT 10SM CLR 16/M05 A3009 RMK AO2 SLP189 T01611050 56025
KVLD - Valdosta Airport, GA
distance from station: s 185 mi
updated: Feb 28 2020 3:53 pm
clear  
clear  
   wind: varies 3.5 mph
wind: varies 3.5 mph
temperature: 62.6°F
dew point: 28.4°F
humidity: 27%
barometer: 30.16 inHg
clouds: Clear
visibility: 10 mi
cloud details: clear ft
KVLD 282053Z VRB03KT 10SM CLR 17/M02 A3016 RMK AO2 SLP223 T01721022 56024
KWRB - Warner Robins Airport, GA
distance from station: sse 78 mi
updated: Feb 28 2020 3:56 pm
few clouds  
few clouds  
   wind: west 12.7 mph<br />Gust to 12.7 mph
wind: west 12.7 mph
Gust to 12.7 mph
temperature: 59°F
dew point: 26.6°F
humidity: 29%
barometer: 30.08 inHg
clouds: Few Clouds
visibility: 10 mi
cloud details: few clouds 5000 ft
KWRB 282056Z 27011G22KT 10SM FEW050 15/M03 A3008 RMK AO2A PK WND 27026/31 SLP189 T01541030 56028

script developed by  Saratoga-weather.org adapted for the template by  Weerstation Leuven

equipment we use:

weather-station
Davis VP2 weatherstation

weather-program
WeatherLink

weather-server
My Computer

provider
My provider

Davis VP2 weatherstation

WeatherLink

My Computer

My provider